createdAt,value
2017-09-08T10:29:38.924Z,24.70
2017-09-08T10:32:13.858Z,25.10
2017-09-08T10:34:42.554Z,25.10
2017-09-08T10:37:11.244Z,25.20
2017-09-08T10:39:39.922Z,25.10
2017-09-08T10:42:08.612Z,24.90
2017-09-08T10:44:37.298Z,24.80
2017-09-08T10:47:15.423Z,24.70
2017-09-08T10:49:44.106Z,25.00
2017-09-08T10:52:12.814Z,25.60
2017-09-08T10:54:41.600Z,25.90
2017-09-08T10:57:16.472Z,26.00
2017-09-08T10:59:51.360Z,26.30
2017-09-08T11:02:20.052Z,27.10
2017-09-08T11:04:54.841Z,27.80
2017-09-08T11:07:23.536Z,28.80
2017-09-08T11:09:52.215Z,29.50
2017-09-08T11:12:20.925Z,30.60
2017-09-08T11:14:49.634Z,31.20
2017-09-08T11:17:24.519Z,31.60
2017-09-08T11:19:59.497Z,31.90
2017-09-08T11:22:34.461Z,32.00
2017-09-08T11:25:03.152Z,31.40
2017-09-08T11:27:31.844Z,30.50
2017-09-08T11:30:06.671Z,29.50
2017-09-08T11:32:47.248Z,28.70
2017-09-08T11:35:21.660Z,27.90
2017-09-08T11:37:51.182Z,27.20
2017-09-08T11:40:26.110Z,26.60
2017-09-08T11:43:00.908Z,26.00
2017-09-08T11:45:29.602Z,25.50
2017-09-08T11:48:04.615Z,25.10
2017-09-08T11:50:39.646Z,24.90
2017-09-08T11:53:08.347Z,24.80
2017-09-08T11:55:43.113Z,24.70
2017-09-08T11:58:11.807Z,24.70
2017-09-08T12:00:40.471Z,25.30
2017-09-08T12:03:15.340Z,25.70
2017-09-08T12:05:46.005Z,25.70
2017-09-08T12:08:24.839Z,25.50
2017-09-08T12:10:53.529Z,25.40
2017-09-08T12:13:22.219Z,25.70
2017-09-08T12:15:50.908Z,26.20
2017-09-08T12:18:19.720Z,26.60
2017-09-08T12:20:48.440Z,27.10
2017-09-08T12:23:23.336Z,27.10
2017-09-08T12:25:52.054Z,27.10
2017-09-08T12:28:22.733Z,27.80
2017-09-08T12:30:52.744Z,29.00
2017-09-08T12:33:21.768Z,30.20
2017-09-08T12:35:50.757Z,31.00
2017-09-08T12:38:19.448Z,31.00
2017-09-08T12:40:48.491Z,30.50
2017-09-08T12:43:17.203Z,29.70
2017-09-08T12:45:52.041Z,29.10
2017-09-08T12:48:20.744Z,28.50
2017-09-08T12:50:50.515Z,28.20
2017-09-08T12:53:19.376Z,28.10
2017-09-08T12:55:48.084Z,28.10
2017-09-08T12:58:16.771Z,28.00
2017-09-08T13:00:45.468Z,27.90
2017-09-08T13:03:20.428Z,27.90
2017-09-08T13:05:49.134Z,28.10
2017-09-08T13:08:24.096Z,28.50
2017-09-08T13:10:52.799Z,28.70
2017-09-08T13:13:27.659Z,29.50
2017-09-08T13:15:56.383Z,30.60
2017-09-08T13:18:25.076Z,31.80
2017-09-08T13:21:00.040Z,32.60
2017-09-08T13:23:28.711Z,32.80
2017-09-08T13:25:57.393Z,32.50
2017-09-08T13:28:26.982Z,31.90
2017-09-08T13:30:55.659Z,31.30
2017-09-08T13:33:25.209Z,31.00
2017-09-08T13:35:53.891Z,30.90
2017-09-08T13:38:28.869Z,30.60
2017-09-08T13:40:58.324Z,29.90
2017-09-08T13:43:27.023Z,29.80
2017-09-08T13:45:55.716Z,29.30
2017-09-08T13:48:42.936Z,28.90
2017-09-08T13:51:11.639Z,28.40
2017-09-08T13:53:41.083Z,28.20
2017-09-08T13:56:09.772Z,28.10
2017-09-08T13:58:44.671Z,28.30
2017-09-08T14:01:19.487Z,28.90
2017-09-08T14:03:48.191Z,29.30
2017-09-08T14:06:23.116Z,29.40
2017-09-08T14:08:51.815Z,29.30
2017-09-08T14:11:22.351Z,28.80
2017-09-08T14:13:57.251Z,28.10
2017-09-08T14:16:32.019Z,27.50
2017-09-08T14:19:00.711Z,27.10
2017-09-08T14:21:35.479Z,26.90
2017-09-08T14:24:10.513Z,26.60
2017-09-08T14:26:39.187Z,26.40
2017-09-08T14:29:07.881Z,26.10
2017-09-08T14:31:36.563Z,25.90
2017-09-08T14:34:05.248Z,25.90
2017-09-08T14:36:33.955Z,26.00
2017-09-08T14:39:02.632Z,26.20
2017-09-08T14:41:32.171Z,26.80
2017-09-08T14:44:06.880Z,27.60
2017-09-08T14:46:35.568Z,28.30
2017-09-08T14:49:04.271Z,28.90
2017-09-08T14:51:32.955Z,29.20
2017-09-08T14:54:07.893Z,29.10
2017-09-08T14:56:42.871Z,28.70
2017-09-08T14:59:11.583Z,28.30
2017-09-08T15:01:46.405Z,28.00
2017-09-08T15:04:15.155Z,27.90
2017-09-08T15:06:43.832Z,27.60
2017-09-08T15:09:12.506Z,27.20
2017-09-08T15:11:41.194Z,27.00
2017-09-08T15:14:09.888Z,27.00
2017-09-08T15:16:38.568Z,27.00
2017-09-08T15:19:13.651Z,27.10
2017-09-08T15:21:42.335Z,27.20
2017-09-08T15:24:11.035Z,27.20
2017-09-08T15:26:40.483Z,27.00
2017-09-08T15:29:09.159Z,26.90
2017-09-08T15:31:44.090Z,26.70
2017-09-08T15:34:12.762Z,26.60
2017-09-08T15:36:41.480Z,26.50
2017-09-08T15:39:10.438Z,26.50
2017-09-08T15:42:10.291Z,26.50
2017-09-08T15:44:38.970Z,26.30
2017-09-08T15:47:14.528Z,26.00
2017-09-08T15:49:43.191Z,25.70
2017-09-08T15:52:18.222Z,25.40
2017-09-08T15:54:52.351Z,25.20
2017-09-08T15:57:21.051Z,25.00
2017-09-08T15:59:55.955Z,25.00
2017-09-08T16:02:24.675Z,24.90
2017-09-08T16:04:53.359Z,24.90
2017-09-08T16:07:23.027Z,24.90
2017-09-08T16:09:57.959Z,24.80
2017-09-08T16:12:28.620Z,24.80
2017-09-08T16:15:03.547Z,24.60
2017-09-08T16:17:32.500Z,24.40
2017-09-08T16:20:07.472Z,24.20
2017-09-08T16:22:42.476Z,24.00
2017-09-08T16:25:13.117Z,23.80
2017-09-08T16:27:48.397Z,23.80
2017-09-08T16:30:18.023Z,23.70
2017-09-08T16:32:54.725Z,23.60
2017-09-08T16:35:24.363Z,23.50
2017-09-08T16:37:53.203Z,23.40
2017-09-08T16:40:21.892Z,23.20
2017-09-08T16:42:50.582Z,23.10
2017-09-08T16:45:19.271Z,22.90
2017-09-08T16:47:47.985Z,22.70
2017-09-08T16:50:16.667Z,22.50
2017-09-08T16:52:45.360Z,22.20
2017-09-08T16:55:14.067Z,22.00
2017-09-08T16:57:48.935Z,21.80
2017-09-08T17:00:17.643Z,21.60
2017-09-08T17:02:46.423Z,21.30
2017-09-08T17:05:15.102Z,21.10
2017-09-08T17:07:43.799Z,20.80
2017-09-08T17:10:12.484Z,20.60
2017-09-08T17:12:42.148Z,20.50
2017-09-08T17:15:10.832Z,20.30
2017-09-08T17:17:45.715Z,20.20
2017-09-08T17:20:14.391Z,20.00
2017-09-08T17:22:43.075Z,19.90
2017-09-08T17:25:18.027Z,19.70
2017-09-08T17:27:52.908Z,19.50
2017-09-08T17:30:32.616Z,19.30
2017-09-08T17:33:01.310Z,19.10
2017-09-08T17:35:31.179Z,18.90
2017-09-08T17:38:06.044Z,18.70
2017-09-08T17:40:35.596Z,18.60
2017-09-08T17:43:10.397Z,18.40
2017-09-08T17:45:39.071Z,18.30
2017-09-08T17:48:13.994Z,18.10
2017-09-08T17:50:42.680Z,18.10
2017-09-08T17:53:11.366Z,18.00
2017-09-08T17:55:46.238Z,17.80
2017-09-08T17:58:14.921Z,17.70
2017-09-08T18:00:43.643Z,17.60
2017-09-08T18:03:33.188Z,17.50
2017-09-08T18:06:24.598Z,17.50
2017-09-08T18:08:53.337Z,17.40
2017-09-08T18:11:22.035Z,17.20
2017-09-08T18:13:50.812Z,17.10
2017-09-08T18:16:19.507Z,17.00
2017-09-08T18:18:48.397Z,17.00
2017-09-08T18:21:17.238Z,16.90
2017-09-08T18:23:45.953Z,16.80
2017-09-08T18:26:25.256Z,16.80
2017-09-08T18:28:53.945Z,16.70
2017-09-08T18:31:22.627Z,16.60
2017-09-08T18:33:51.328Z,16.50
2017-09-08T18:36:26.288Z,16.40
2017-09-08T18:39:01.221Z,16.40
2017-09-08T18:41:36.163Z,16.30
2017-09-08T18:44:06.899Z,16.20
2017-09-08T18:46:35.574Z,16.10
2017-09-08T18:49:10.411Z,16.10
2017-09-08T18:51:45.324Z,16.00
2017-09-08T18:54:14.027Z,15.90
2017-09-08T18:56:42.725Z,15.90
2017-09-08T18:59:11.390Z,15.90
2017-09-08T19:01:46.368Z,15.90
2017-09-08T19:04:15.815Z,15.80
2017-09-08T19:06:44.523Z,15.70
2017-09-08T19:09:13.219Z,15.70
2017-09-08T19:11:41.910Z,15.70
2017-09-08T19:14:10.605Z,15.60
2017-09-08T19:16:39.287Z,15.60
2017-09-08T19:19:14.107Z,15.60
2017-09-08T19:21:48.947Z,15.50
2017-09-08T19:24:23.899Z,15.50
2017-09-08T19:26:52.579Z,15.50
2017-09-08T19:29:21.262Z,15.40
2017-09-08T19:31:56.182Z,15.40
2017-09-08T19:34:24.877Z,15.30
2017-09-08T19:36:54.432Z,15.20
2017-09-08T19:39:29.412Z,15.20
2017-09-08T19:42:04.421Z,15.10
2017-09-08T19:44:39.439Z,15.10
2017-09-08T19:47:08.144Z,15.10
2017-09-08T19:49:36.827Z,15.00
2017-09-08T19:52:05.524Z,14.90
2017-09-08T19:54:40.539Z,14.90
2017-09-08T19:57:09.236Z,14.80
2017-09-08T19:59:37.926Z,14.80
2017-09-08T20:02:12.817Z,14.70
2017-09-08T20:04:41.580Z,14.70
2017-09-08T20:07:16.469Z,14.70
2017-09-08T20:09:45.168Z,14.60
2017-09-08T20:12:13.856Z,14.60
2017-09-08T20:14:42.598Z,14.50
2017-09-08T20:17:11.287Z,14.50
2017-09-08T20:19:41.880Z,14.50
2017-09-08T20:22:10.579Z,14.40
2017-09-08T20:24:39.277Z,14.40
2017-09-08T20:27:08.859Z,14.40
2017-09-08T20:29:44.458Z,14.40
2017-09-08T20:32:13.172Z,14.30
2017-09-08T20:34:48.072Z,14.30
2017-09-08T20:37:16.795Z,14.20
2017-09-08T20:39:45.523Z,14.20
2017-09-08T20:42:20.340Z,14.20
2017-09-08T20:44:49.020Z,14.10
2017-09-08T20:47:18.073Z,14.10
2017-09-08T20:49:47.755Z,14.10
2017-09-08T20:52:22.543Z,14.00
2017-09-08T20:54:51.260Z,14.00
2017-09-08T20:57:26.180Z,14.00
2017-09-08T21:00:01.048Z,13.90
2017-09-08T21:02:35.967Z,13.90
2017-09-08T21:05:04.710Z,13.90
2017-09-08T21:07:33.390Z,13.90
2017-09-08T21:10:03.051Z,13.90
2017-09-08T21:12:33.886Z,13.90
2017-09-08T21:15:02.904Z,13.80
2017-09-08T21:17:37.908Z,13.90
2017-09-08T21:20:12.847Z,13.90
2017-09-08T21:22:41.555Z,13.80
2017-09-08T21:25:10.254Z,13.90
2017-09-08T21:27:40.967Z,13.80
2017-09-08T21:30:09.655Z,13.80
2017-09-08T21:32:38.335Z,13.80
2017-09-08T21:35:13.940Z,13.80
2017-09-08T21:37:47.671Z,13.80
2017-09-08T21:40:16.403Z,13.80
2017-09-08T21:42:45.115Z,13.80
2017-09-08T21:45:13.917Z,13.80
2017-09-08T21:47:42.731Z,13.80
2017-09-08T21:50:11.415Z,13.80
2017-09-08T21:52:46.381Z,13.80
2017-09-08T21:55:20.292Z,13.80
2017-09-08T21:57:48.999Z,13.80
2017-09-08T22:00:17.692Z,13.80
2017-09-08T22:02:52.653Z,13.70
2017-09-08T22:05:21.367Z,13.60
2017-09-08T22:07:50.059Z,13.50
2017-09-08T22:10:19.075Z,13.50
2017-09-08T22:12:48.445Z,13.40
2017-09-08T22:15:18.016Z,13.40
2017-09-08T22:17:46.706Z,13.40
2017-09-08T22:20:15.805Z,13.50
2017-09-08T22:22:45.353Z,13.50
2017-09-08T22:25:14.276Z,13.50
2017-09-08T22:27:49.066Z,13.50
2017-09-08T22:30:17.733Z,13.50
2017-09-08T22:32:46.642Z,13.50
2017-09-08T22:35:15.520Z,13.60
2017-09-08T22:37:45.106Z,13.50
2017-09-08T22:40:14.104Z,13.50
2017-09-08T22:42:42.807Z,13.40
2017-09-08T22:45:12.457Z,13.40
2017-09-08T22:47:41.144Z,13.30
2017-09-08T22:50:09.828Z,13.30
2017-09-08T22:52:41.407Z,13.40
2017-09-08T22:55:10.102Z,13.30
2017-09-08T22:57:38.776Z,13.40
2017-09-08T23:00:13.738Z,13.40
2017-09-08T23:02:42.415Z,13.40
2017-09-08T23:05:17.312Z,13.40
2017-09-08T23:07:46.247Z,13.40
2017-09-08T23:10:21.121Z,13.40
2017-09-08T23:12:50.121Z,13.30
2017-09-08T23:15:19.002Z,13.30
2017-09-08T23:17:47.855Z,13.20
2017-09-08T23:20:16.585Z,13.20
2017-09-08T23:22:46.770Z,13.20
2017-09-08T23:25:16.923Z,13.20
2017-09-08T23:27:45.651Z,13.20
2017-09-08T23:30:14.401Z,13.30
2017-09-08T23:32:43.432Z,13.30
2017-09-08T23:35:12.144Z,13.30
2017-09-08T23:37:40.995Z,13.40
2017-09-08T23:40:09.740Z,13.40
2017-09-08T23:42:38.619Z,13.40
2017-09-08T23:45:07.786Z,13.40
2017-09-08T23:47:36.858Z,13.40
2017-09-08T23:50:05.575Z,13.40
2017-09-08T23:52:34.477Z,13.40
2017-09-08T23:55:03.332Z,13.40
2017-09-08T23:57:32.204Z,13.40
